Time;durP1;ratioP1;P1;durP2;ratioP2;P2;SDS_P1;SDS_P2;PMS_P1;PMS_P2;Temp;Humidity;BMP_temperature;BMP_pressure;BME280_temperature;BME280_humidity;BME280_pressure;Samples;Min_cycle;Max_cycle;Signal;HPM_P1;HPM_P2
2023/04/09 00:02:01;;;;;;;0.30;0.30;;;;;;;6.53;98.08;97353.97;4984832;28;20165;-63
2023/04/09 00:04:27;;;;;;;0.30;0.30;;;;;;;6.43;97.83;97354.41;4984158;28;20494;-64
2023/04/09 00:06:54;;;;;;;0.30;0.30;;;;;;;6.38;97.92;97345.53;4984369;28;20058;-63
2023/04/09 00:09:21;;;;;;;0.35;0.35;;;;;;;6.30;97.29;97332.66;4984393;28;20082;-63
2023/04/09 00:11:47;;;;;;;0.40;0.40;;;;;;;4.31;97.79;97028.63;4984656;28;20058;-62
2023/04/09 00:14:14;;;;;;;0.30;0.30;;;;;;;6.24;98.82;97356.81;4984250;28;20132;-63
2023/04/09 00:16:40;;;;;;;0.30;0.30;;;;;;;5.81;98.93;97293.03;4984550;28;20463;-63
2023/04/09 00:19:07;;;;;;;0.30;0.30;;;;;;;6.24;99.47;97362.31;4984716;28;20054;-63
2023/04/09 00:21:34;;;;;;;0.30;0.30;;;;;;;6.26;98.42;97360.03;4982914;28;20144;-62
2023/04/09 00:24:00;;;;;;;0.30;0.30;;;;;;;6.09;98.29;97327.16;4984498;28;20050;-62
2023/04/09 00:26:27;;;;;;;0.30;0.30;;;;;;;6.00;99.32;97329.16;4984084;28;20062;-63
2023/04/09 00:28:54;;;;;;;0.30;0.30;;;;;;;6.14;99.08;97344.28;4983103;28;20704;-63
2023/04/09 00:31:21;;;;;;;0.30;0.30;;;;;;;6.17;98.58;97367.53;4986421;28;20050;-62
2023/04/09 00:33:47;;;;;;;0.30;0.30;;;;;;;5.89;96.86;97297.69;4987960;28;20533;-63
2023/04/09 00:36:14;;;;;;;0.30;0.30;;;;;;;6.25;96.61;97352.91;4986538;28;20105;-64
2023/04/09 00:38:41;;;;;;;0.30;0.30;;;;;;;5.98;95.69;97321.25;4987899;28;20065;-62
2023/04/09 00:41:07;;;;;;;0.30;0.30;;;;;;;6.34;95.15;97355.63;4987492;28;20058;-63
2023/04/09 00:43:34;;;;;;;0.30;0.30;;;;;;;6.38;94.76;97351.84;4988033;28;20054;-63
2023/04/09 00:46:01;;;;;;;0.30;0.30;;;;;;;5.97;94.50;97313.34;4987380;28;20124;-63
2023/04/09 00:48:28;;;;;;;0.30;0.30;;;;;;;6.26;94.41;97353.72;4987904;28;20064;-64
2023/04/09 00:50:54;;;;;;;0.30;0.30;;;;;;;6.21;94.94;97352.00;4987325;28;20136;-62
2023/04/09 00:53:21;;;;;;;0.30;0.30;;;;;;;6.18;94.01;97352.63;4987353;28;20061;-63
2023/04/09 00:55:48;;;;;;;0.30;0.30;;;;;;;5.76;94.35;97312.47;4987606;28;20792;-64
2023/04/09 00:58:15;;;;;;;0.30;0.30;;;;;;;6.22;93.82;97358.28;4987751;28;20505;-63
2023/04/09 01:00:41;;;;;;;0.30;0.30;;;;;;;6.33;90.67;97359.50;4985361;28;20058;-63
2023/04/09 01:03:08;;;;;;;0.30;0.30;;;;;;;5.90;90.71;97304.81;4967762;28;20042;-63
2023/04/09 01:05:44;;;;;;;0.30;0.30;;;;;;;6.23;90.15;97355.19;4967932;28;20442;-63
2023/04/09 01:08:24;;;;;;;0.30;0.30;;;;;;;6.07;91.28;97348.66;4967629;28;20086;-61
2023/04/09 01:11:15;;;;;;;0.30;0.30;;;;;;;5.38;91.56;97251.28;4982470;28;20090;-63
2023/04/09 01:14:09;;;;;;;0.30;0.30;;;;;;;5.81;92.62;97359.00;4977498;28;20125;-63
2023/04/09 01:16:40;;;;;;;0.30;0.30;;;;;;;5.86;92.23;97361.59;4986887;28;20082;-63
2023/04/09 01:19:34;;;;;;;0.30;0.30;;;;;;;5.89;92.04;97360.94;4987651;28;20050;-63
2023/04/09 01:22:01;;;;;;;;;;;;;;;5.79;90.31;97366.75;4988056;28;20104;-61
2023/04/09 01:24:41;;;;;;;0.30;0.30;;;;;;;5.57;91.19;97359.59;4987061;28;19972;-63
2023/04/09 01:27:08;;;;;;;0.20;0.20;;;;;;;5.18;91.98;97318.75;4985924;28;20148;-63
2023/04/09 01:29:44;;;;;;;0.30;0.30;;;;;;;5.66;90.68;97362.31;4986998;28;20150;-63
2023/04/09 01:32:12;;;;;;;0.30;0.30;;;;;;;5.66;89.49;97363.13;4986945;28;20137;-62
2023/04/09 01:34:41;;;;;;;0.30;0.30;;;;;;;5.00;92.27;97277.94;4985652;28;20109;-63
2023/04/09 01:37:08;;;;;;;0.30;0.30;;;;;;;5.08;92.30;97297.13;4985338;28;20054;-62
2023/04/09 01:39:36;;;;;;;0.30;0.30;;;;;;;5.44;93.28;97357.06;4986824;28;20086;-63
2023/04/09 01:42:04;;;;;;;0.30;0.30;;;;;;;5.47;93.94;97356.44;4984761;28;20050;-63
2023/04/09 01:44:31;;;;;;;0.30;0.30;;;;;;;5.27;91.97;97296.72;4986670;28;20081;-63
2023/04/09 01:47:00;;;;;;;0.30;0.30;;;;;;;5.61;91.53;97359.75;4986356;28;20480;-63
2023/04/09 01:49:28;;;;;;;0.30;0.30;;;;;;;5.33;91.20;97304.44;4985988;28;20529;-63
2023/04/09 01:51:55;;;;;;;0.30;0.30;;;;;;;5.55;91.57;97344.56;4986840;28;20113;-63
2023/04/09 01:54:21;;;;;;;0.30;0.30;;;;;;;5.49;92.50;97332.97;4986403;28;20438;-62
2023/04/09 01:56:48;;;;;;;0.30;0.30;;;;;;;5.45;93.56;97333.97;4986728;28;20508;-63
2023/04/09 01:59:15;;;;;;;0.30;0.30;;;;;;;5.03;93.85;97282.75;4985195;28;20054;-63
2023/04/09 02:02:00;;;;;;;0.30;0.30;;;;;;;5.32;93.82;97335.00;4986517;28;20061;-63
2023/04/09 02:04:37;;;;;;;0.30;0.30;;;;;;;5.13;93.86;97364.78;4986523;28;20112;-63
2023/04/09 02:07:17;;;;;;;0.30;0.30;;;;;;;5.51;93.49;97338.13;4986090;28;20525;-63
2023/04/09 02:09:46;;;;;;;0.30;0.30;;;;;;;5.32;93.52;97324.00;4984600;28;20601;-62
2023/04/09 02:12:17;;;;;;;0.30;0.30;;;;;;;5.50;93.59;97347.53;4986452;28;20050;-62
2023/04/09 02:14:50;;;;;;;0.30;0.30;;;;;;;5.59;93.34;97351.03;4985381;28;20082;-63
2023/04/09 02:17:17;;;;;;;0.30;0.30;;;;;;;4.93;92.95;97244.72;4986374;28;20133;-62
2023/04/09 02:19:45;;;;;;;0.30;0.30;;;;;;;5.47;92.04;97320.72;4984457;28;20050;-62
2023/04/09 02:22:13;;;;;;;0.30;0.30;;;;;;;5.62;91.02;97350.38;4986395;28;20073;-62
2023/04/09 02:24:40;;;;;;;0.30;0.30;;;;;;;5.14;91.87;97289.53;4985993;28;20537;-62
2023/04/09 02:27:07;;;;;;;0.30;0.30;;;;;;;5.19;92.20;97303.06;4986054;28;20105;-62
2023/04/09 02:29:34;;;;;;;0.30;0.30;;;;;;;4.91;92.04;97257.97;4984428;28;20601;-63
2023/04/09 02:32:01;;;;;;;0.30;0.30;;;;;;;4.91;92.05;97296.38;4986209;28;20050;-62
2023/04/09 02:34:27;;;;;;;0.20;0.20;;;;;;;5.12;92.82;97335.72;4986007;28;20054;-63
2023/04/09 02:36:54;;;;;;;0.30;0.30;;;;;;;5.35;92.63;97354.38;4985901;28;20054;-63
2023/04/09 02:39:21;;;;;;;0.30;0.30;;;;;;;5.23;93.26;97342.47;4985699;28;20050;-62
2023/04/09 02:41:47;;;;;;;0.30;0.30;;;;;;;4.80;93.58;97297.88;4984680;28;20104;-63
2023/04/09 02:44:14;;;;;;;0.30;0.30;;;;;;;5.02;94.43;97349.78;4985716;28;20109;-62
2023/04/09 02:46:41;;;;;;;0.30;0.30;;;;;;;5.09;95.46;97347.38;4985516;28;20054;-63
2023/04/09 02:49:08;;;;;;;0.30;0.30;;;;;;;4.79;94.87;97305.28;4985596;28;20077;-62
2023/04/09 02:51:35;;;;;;;0.20;0.20;;;;;;;5.09;95.10;97347.38;4985085;28;20086;-64
2023/04/09 02:54:03;;;;;;;0.35;0.35;;;;;;;5.05;94.58;97338.16;4985062;28;20495;-63
2023/04/09 02:56:29;;;;;;;0.30;0.30;;;;;;;5.19;92.86;97349.72;4985226;28;20137;-63
2023/04/09 02:58:56;;;;;;;0.22;0.22;;;;;;;5.16;92.40;97358.63;4984908;28;20042;-63
2023/04/09 03:01:22;;;;;;;0.30;0.30;;;;;;;5.14;92.22;97355.44;4985088;28;20112;-63
2023/04/09 03:03:49;;;;;;;0.30;0.30;;;;;;;5.12;92.07;97352.97;4985393;28;20155;-63
2023/04/09 03:06:17;;;;;;;0.30;0.30;;;;;;;5.18;91.06;97356.38;4984803;28;20493;-62
2023/04/09 03:08:44;;;;;;;0.30;0.30;;;;;;;5.14;91.20;97352.69;4985239;28;20057;-63
2023/04/09 03:11:10;;;;;;;0.30;0.30;;;;;;;5.10;93.03;97365.44;4983289;28;20133;-62
2023/04/09 03:13:37;;;;;;;0.22;0.22;;;;;;;5.10;92.52;97354.44;4984835;28;20085;-61
2023/04/09 03:16:04;;;;;;;0.30;0.30;;;;;;;4.49;94.56;97293.41;4976282;28;20141;-63
2023/04/09 03:18:31;;;;;;;0.30;0.30;;;;;;;4.77;94.88;97325.97;4985343;28;20054;-63
2023/04/09 03:20:57;;;;;;;0.30;0.30;;;;;;;5.05;95.07;97351.88;4984701;28;20503;-62
2023/04/09 03:23:24;;;;;;;0.20;0.20;;;;;;;5.08;94.82;97363.00;4984982;28;20042;-62
2023/04/09 03:26:02;;;;;;;0.30;0.30;;;;;;;5.08;93.80;97356.72;4983600;28;20058;-61
2023/04/09 03:28:29;;;;;;;0.30;0.30;;;;;;;5.05;93.54;97354.63;4985039;28;20084;-62
2023/04/09 03:30:56;;;;;;;0.30;0.30;;;;;;;4.95;93.08;97368.72;4984675;28;20421;-63
2023/04/09 03:33:24;;;;;;;0.30;0.30;;;;;;;4.49;93.79;97306.31;4984869;28;20058;-62
2023/04/09 03:35:51;;;;;;;0.30;0.30;;;;;;;4.85;93.53;97360.81;4985079;28;20058;-62
2023/04/09 03:38:18;;;;;;;0.30;0.30;;;;;;;4.44;93.89;97292.78;4984957;28;20050;-62
2023/04/09 03:40:45;;;;;;;0.30;0.30;;;;;;;4.66;94.30;97342.75;4983280;28;20050;-63
2023/04/09 03:43:11;;;;;;;0.20;0.20;;;;;;;4.86;94.85;97370.66;4984586;28;20521;-63
2023/04/09 03:45:38;;;;;;;0.30;0.30;;;;;;;4.84;94.79;97350.97;4984365;28;20089;-62
2023/04/09 03:48:05;;;;;;;0.30;0.30;;;;;;;4.94;94.64;97359.66;4984745;28;20082;-62
2023/04/09 03:50:37;;;;;;;0.30;0.30;;;;;;;5.13;92.79;97371.09;4982983;28;20417;-62
2023/04/09 03:53:04;;;;;;;0.30;0.30;;;;;;;5.12;93.14;97363.19;4983179;28;20476;-61
2023/04/09 03:55:31;;;;;;;0.30;0.30;;;;;;;5.25;92.77;97362.19;4984334;28;20051;-62
2023/04/09 03:57:57;;;;;;;0.30;0.30;;;;;;;5.25;93.44;97364.91;4984433;28;20493;-63
2023/04/09 04:00:24;;;;;;;0.30;0.30;;;;;;;5.37;91.22;97381.50;4978358;28;20054;-61
2023/04/09 04:02:51;;;;;;;0.30;0.30;;;;;;;5.27;90.41;97362.63;4965462;28;20050;-62
2023/04/09 04:05:18;;;;;;;0.30;0.30;;;;;;;5.20;90.75;97374.13;4966277;28;20485;-63
2023/04/09 04:07:45;;;;;;;0.30;0.30;;;;;;;5.22;90.42;97369.13;4968740;28;20144;-62
2023/04/09 04:10:11;;;;;;;0.28;0.28;;;;;;;5.17;89.80;97341.03;4983844;28;20513;-61
2023/04/09 04:12:38;;;;;;;0.30;0.30;;;;;;;5.43;89.77;97369.19;4968996;28;20050;-64
2023/04/09 04:15:05;;;;;;;0.30;0.30;;;;;;;5.17;91.25;97332.81;4987829;28;20057;-62
2023/04/09 04:17:32;;;;;;;0.30;0.30;;;;;;;5.29;91.49;97352.13;4988456;28;20569;-63
2023/04/09 04:19:59;;;;;;;0.30;0.30;;;;;;;5.43;91.11;97369.19;4988283;28;20444;-61
2023/04/09 04:22:25;;;;;;;0.30;0.30;;;;;;;5.52;92.18;97364.47;4987643;28;20560;-61
2023/04/09 04:24:52;;;;;;;0.30;0.30;;;;;;;5.59;91.91;97373.00;4987700;28;20050;-62
2023/04/09 04:27:18;;;;;;;0.30;0.30;;;;;;;5.67;91.09;97369.44;4987277;28;20709;-62
2023/04/09 04:29:45;;;;;;;0.30;0.30;;;;;;;5.70;89.58;97368.75;4987266;28;20081;-64
2023/04/09 04:32:12;;;;;;;0.30;0.30;;;;;;;5.57;88.54;97361.53;4987733;28;20078;-62
2023/04/09 04:34:38;;;;;;;0.30;0.30;;;;;;;5.77;89.37;97385.56;4986795;28;20137;-63
2023/04/09 04:37:05;;;;;;;0.30;0.30;;;;;;;5.86;88.36;97383.59;4987840;28;20057;-62
2023/04/09 04:39:31;;;;;;;0.30;0.30;;;;;;;5.23;88.38;97288.34;4987471;28;20096;-62
2023/04/09 04:41:58;;;;;;;0.30;0.30;;;;;;;5.93;87.50;97392.91;4987881;28;20501;-62
2023/04/09 04:44:24;;;;;;;0.30;0.30;;;;;;;5.57;87.75;97347.81;4986039;28;20092;-61
2023/04/09 04:46:51;;;;;;;0.30;0.30;;;;;;;5.93;89.23;97392.91;4985955;28;20062;-62
2023/04/09 04:49:18;;;;;;;0.30;0.30;;;;;;;5.78;88.50;97376.16;4985764;28;20054;-62
2023/04/09 04:51:44;;;;;;;0.30;0.30;;;;;;;5.94;89.12;97397.28;4987548;28;20085;-62
2023/04/09 04:54:11;;;;;;;0.30;0.30;;;;;;;5.45;89.57;97328.47;4987538;28;20504;-62
2023/04/09 04:56:37;;;;;;;0.30;0.30;;;;;;;6.21;88.37;97390.50;4987356;28;20121;-62
2023/04/09 04:59:04;;;;;;;0.30;0.30;;;;;;;6.37;87.26;97394.25;5002059;28;20058;-63
2023/04/09 05:01:31;;;;;;;0.30;0.30;;;;;;;6.47;86.85;97388.34;4987300;28;20058;-62
2023/04/09 05:03:57;;;;;;;0.30;0.30;;;;;;;6.57;86.87;97398.97;4986928;28;20579;-62
2023/04/09 05:06:26;;;;;;;0.30;0.30;;;;;;;6.72;86.17;97392.84;4985486;28;20471;-62
2023/04/09 05:08:56;;;;;;;0.40;0.40;;;;;;;6.46;86.84;97375.75;4987239;28;20054;-63
2023/04/09 05:11:26;;;;;;;0.30;0.30;;;;;;;6.37;86.73;97344.72;4987533;28;20064;-62
2023/04/09 05:13:53;;;;;;;0.30;0.30;;;;;;;6.89;85.91;97395.44;4982287;28;20054;-62
2023/04/09 05:16:20;;;;;;;0.30;0.30;;;;;;;6.76;84.85;97385.53;4966680;28;20046;-62
2023/04/09 05:18:47;;;;;;;0.30;0.30;;;;;;;6.38;84.36;97324.34;4967833;28;20065;-61
2023/04/09 05:21:14;;;;;;;0.40;0.40;;;;;;;7.06;84.06;97389.78;4966220;28;20485;-62
2023/04/09 05:23:41;;;;;;;0.30;0.30;;;;;;;7.26;83.09;97388.91;4967634;28;20062;-62
2023/04/09 05:26:08;;;;;;;0.40;0.40;;;;;;;7.40;82.40;97377.56;4967650;28;20058;-64
2023/04/09 05:28:35;;;;;;;0.30;0.30;;;;;;;7.47;82.51;97373.13;4967609;28;20145;-61
2023/04/09 05:31:02;;;;;;;0.30;0.30;;;;;;;7.63;81.53;97398.84;4967276;28;20047;-62
2023/04/09 05:33:28;;;;;;;0.35;0.35;;;;;;;7.78;80.16;97378.09;4965948;28;20500;-62
2023/04/09 05:35:55;;;;;;;0.30;0.30;;;;;;;7.84;80.26;97381.44;4967371;28;20054;-62
2023/04/09 05:38:22;;;;;;;0.40;0.40;;;;;;;7.89;79.44;97389.50;4966244;28;20065;-63
2023/04/09 05:40:48;;;;;;;0.30;0.30;;;;;;;8.03;78.62;97345.81;4966232;28;20055;-63
2023/04/09 05:43:15;;;;;;;0.40;0.40;;;;;;;6.42;78.22;97039.13;4965743;28;20588;-64
2023/04/09 05:45:42;;;;;;;0.30;0.30;;;;;;;8.61;77.15;97379.19;4967139;28;20082;-62
2023/04/09 05:48:08;;;;;;;0.47;0.47;;;;;;;8.95;76.33;97383.31;4966974;28;20061;-63
2023/04/09 05:50:35;;;;;;;0.50;0.50;;;;;;;9.06;75.55;97378.91;4966963;28;20525;-63
2023/04/09 05:53:19;;;;;;;0.40;0.40;;;;;;;9.28;76.05;97347.13;4966193;28;20073;-63
2023/04/09 05:55:48;;;;;;;0.40;0.40;;;;;;;9.60;75.76;97371.69;4967144;28;20067;-63
2023/04/09 05:58:14;;;;;;;0.50;0.50;;;;;;;9.58;74.44;97340.81;4966537;28;20059;-62
2023/04/09 06:00:41;;;;;;;0.50;0.50;;;;;;;10.17;73.78;97369.19;4966690;28;20097;-63
2023/04/09 06:03:08;;;;;;;0.50;0.50;;;;;;;9.44;72.58;97224.31;4967696;28;20536;-63
2023/04/09 06:05:35;;;;;;;0.50;0.50;;;;;;;10.33;70.94;97371.94;4966965;28;20055;-62
2023/04/09 06:08:01;;;;;;;0.50;0.50;;;;;;;10.52;70.56;97370.03;4966685;28;20054;-63
2023/04/09 06:10:30;;;;;;;0.43;0.43;;;;;;;10.46;69.84;97376.97;4966645;28;20616;-63
2023/04/09 06:12:57;;;;;;;0.50;0.50;;;;;;;10.53;69.84;97379.09;4967713;28;20534;-63
2023/04/09 06:15:23;;;;;;;0.50;0.50;;;;;;;9.10;68.93;97137.44;4985708;28;20101;-64
2023/04/09 06:17:50;;;;;;;0.57;0.57;;;;;;;10.64;68.38;97371.84;4985821;28;20485;-64
2023/04/09 06:20:17;;;;;;;0.50;0.50;;;;;;;10.77;66.43;97386.34;4985724;28;20105;-63
2023/04/09 06:22:43;;;;;;;0.50;0.50;;;;;;;10.88;66.21;97387.38;4985226;28;20050;-62
2023/04/09 06:25:10;;;;;;;0.50;0.50;;;;;;;10.81;66.13;97392.78;4985930;28;20050;-62
2023/04/09 06:27:37;;;;;;;0.50;0.50;;;;;;;10.46;65.51;97354.81;4984370;28;20160;-61
2023/04/09 06:30:04;;;;;;;0.50;0.50;;;;;;;10.80;65.38;97385.63;4985520;28;20388;-63
2023/04/09 06:32:31;;;;;;;0.50;0.50;;;;;;;11.05;64.46;97386.97;4984646;28;20046;-62
2023/04/09 06:35:09;;;;;;;0.50;0.50;;;;;;;11.02;64.21;97315.63;4985754;28;20081;-63
2023/04/09 06:37:36;;;;;;;0.50;0.50;;;;;;;11.60;62.29;97347.63;4985868;28;20112;-63
2023/04/09 06:40:03;;;;;;;0.50;0.50;;;;;;;11.78;61.38;97382.06;4985683;28;20050;-63
2023/04/09 06:42:30;;;;;;;0.50;0.50;;;;;;;11.95;61.19;97379.59;4985816;28;20108;-62
2023/04/09 06:44:56;;;;;;;0.52;0.52;;;;;;;12.03;60.95;97373.00;4985475;28;20140;-63
2023/04/09 06:47:23;;;;;;;0.50;0.50;;;;;;;12.06;60.11;97360.34;4985423;28;20145;-61
2023/04/09 06:49:49;;;;;;;0.60;0.60;;;;;;;12.08;59.97;97371.88;4985873;28;20054;-63
2023/04/09 06:52:16;;;;;;;0.60;0.60;;;;;;;12.09;59.46;97342.94;4985748;28;20054;-63
2023/04/09 06:54:44;;;;;;;0.50;0.50;;;;;;;11.97;59.37;97293.16;4983816;28;20134;-63
2023/04/09 06:57:11;;;;;;;0.50;0.50;;;;;;;12.41;58.71;97366.44;4984007;28;20054;-63
2023/04/09 06:59:38;;;;;;;0.52;0.52;;;;;;;12.22;57.63;97297.09;4985056;28;20058;-64
2023/04/09 07:02:04;;;;;;;0.60;0.60;;;;;;;12.64;56.65;97364.41;4985169;28;20093;-66
2023/04/09 07:04:31;;;;;;;0.50;0.50;;;;;;;12.38;55.46;97267.19;4985075;28;20148;-63
2023/04/09 07:06:59;;;;;;;0.60;0.60;;;;;;;12.81;55.19;97324.94;4983442;28;20076;-63
2023/04/09 07:09:26;;;;;;;0.60;0.60;;;;;;;13.02;53.99;97366.94;4983841;28;20355;-62
2023/04/09 07:11:53;;;;;;;0.50;0.50;;;;;;;13.05;52.55;97368.16;4985264;28;20061;-65
2023/04/09 07:14:19;;;;;;;0.50;0.50;;;;;;;12.84;49.31;97290.81;4984898;28;20074;-63
2023/04/09 07:16:46;;;;;;;0.60;0.60;;;;;;;13.30;49.71;97358.94;4985269;28;20105;-63
2023/04/09 07:19:12;;;;;;;0.60;0.60;;;;;;;13.51;48.36;97355.59;4983425;28;20050;-63
2023/04/09 07:21:39;;;;;;;0.50;0.50;;;;;;;13.46;48.41;97347.56;4984910;28;20176;-63
2023/04/09 07:24:06;;;;;;;0.60;0.60;;;;;;;13.43;45.82;97307.41;4984821;28;20077;-61
2023/04/09 07:26:32;;;;;;;0.60;0.60;;;;;;;13.89;45.89;97346.00;4984706;28;20116;-61
2023/04/09 07:28:59;;;;;;;0.50;0.50;;;;;;;13.74;45.73;97327.59;4985062;28;20473;-61
2023/04/09 07:31:26;;;;;;;0.60;0.60;;;;;;;13.88;46.21;97349.97;4985097;28;20120;-63
2023/04/09 07:33:52;;;;;;;0.65;0.65;;;;;;;13.19;47.91;97346.88;4985393;28;20054;-62
2023/04/09 07:36:20;;;;;;;0.50;0.50;;;;;;;12.72;50.07;97349.44;4984931;28;20054;-62
2023/04/09 07:38:46;;;;;;;0.50;0.50;;;;;;;13.46;48.40;97345.59;4984852;28;20063;-63
2023/04/09 07:41:13;;;;;;;0.60;0.60;;;;;;;13.88;46.80;97345.19;4983398;28;20065;-63
2023/04/09 07:43:40;;;;;;;0.60;0.60;;;;;;;13.90;46.60;97344.81;4984695;28;20082;-64
2023/04/09 07:46:06;;;;;;;0.60;0.60;;;;;;;14.14;46.83;97344.22;4984716;28;20046;-63
2023/04/09 07:48:33;;;;;;;0.60;0.60;;;;;;;14.35;46.61;97350.00;4984781;28;20082;-63
2023/04/09 07:51:00;;;;;;;0.60;0.60;;;;;;;13.82;45.34;97341.16;4984627;28;20042;-63
2023/04/09 07:53:27;;;;;;;0.60;0.60;;;;;;;12.83;45.62;97238.38;4983274;28;20410;-62
2023/04/09 07:55:53;;;;;;;0.50;0.50;;;;;;;13.51;49.17;97353.56;4984377;28;20062;-63
2023/04/09 07:58:20;;;;;;;0.60;0.60;;;;;;;14.02;45.97;97350.88;4983103;28;20058;-62
2023/04/09 08:00:47;;;;;;;0.60;0.60;;;;;;;12.51;47.17;97293.56;4984507;28;20047;-63
2023/04/09 08:03:14;;;;;;;0.60;0.60;;;;;;;12.61;47.54;97348.50;4984580;28;20050;-62
2023/04/09 08:05:41;;;;;;;0.60;0.60;;;;;;;12.00;47.41;97245.22;4984102;28;20413;-63
2023/04/09 08:08:07;;;;;;;0.60;0.60;;;;;;;12.70;47.79;97357.34;4984056;28;20437;-62
2023/04/09 08:10:34;;;;;;;0.60;0.60;;;;;;;13.48;47.05;97354.34;4984344;28;20089;-61
2023/04/09 08:13:01;;;;;;;0.60;0.60;;;;;;;14.09;45.19;97355.72;4984398;28;20083;-63
2023/04/09 08:15:28;;;;;;;0.60;0.60;;;;;;;12.22;44.11;97086.03;4984246;28;20528;-62
2023/04/09 08:17:55;;;;;;;0.60;0.60;;;;;;;13.77;44.74;97354.66;4984141;28;20057;-63
2023/04/09 08:20:21;;;;;;;0.50;0.50;;;;;;;13.57;45.13;97357.66;4982955;28;20446;-63
2023/04/09 08:22:48;;;;;;;0.60;0.60;;;;;;;14.26;44.13;97355.09;4983487;28;20119;-65
2023/04/09 08:25:15;;;;;;;0.60;0.60;;;;;;;14.13;44.18;97311.97;4984029;28;20050;-63
2023/04/09 08:27:41;;;;;;;0.65;0.65;;;;;;;13.82;44.47;97318.06;4979740;28;20066;-63
2023/04/09 08:30:08;;;;;;;0.60;0.60;;;;;;;13.75;46.05;97327.19;4974077;28;20042;-63
2023/04/09 08:32:36;;;;;;;0.57;0.57;;;;;;;14.28;44.92;97341.56;4972692;28;20125;-64
2023/04/09 08:35:03;;;;;;;0.60;0.60;;;;;;;14.34;44.25;97351.97;4970060;28;20097;-63
2023/04/09 08:37:29;;;;;;;0.60;0.60;;;;;;;14.64;43.95;97351.75;4968914;28;20489;-64
2023/04/09 08:39:56;;;;;;;0.70;0.70;;;;;;;13.73;43.71;97253.56;4974133;28;20221;-63
2023/04/09 08:42:24;;;;;;;0.60;0.60;;;;;;;14.62;43.35;97345.78;4964507;28;20109;-64
2023/04/09 08:44:51;;;;;;;0.70;0.70;;;;;;;15.06;43.22;97361.16;4964570;28;20149;-63
2023/04/09 08:47:19;;;;;;;0.70;0.70;;;;;;;15.18;43.18;97346.06;4964596;28;20059;-63
2023/04/09 08:49:47;;;;;;;0.60;0.60;;;;;;;14.60;43.98;97303.56;4965143;28;20559;-64
2023/04/09 08:52:16;;;;;;;0.70;0.70;;;;;;;14.79;42.10;97306.06;4965998;28;20073;-63
2023/04/09 08:54:43;;;;;;;0.60;0.60;;;;;;;15.01;42.86;97344.00;4968009;28;20505;-62
2023/04/09 08:57:09;;;;;;;0.70;0.70;;;;;;;14.40;43.41;97310.63;4967857;28;20054;-61
2023/04/09 08:59:36;;;;;;;0.60;0.60;;;;;;;15.05;44.25;97325.28;4968401;28;20194;-61
2023/04/09 09:02:10;;;;;;;0.70;0.70;;;;;;;14.41;42.91;97273.19;4976580;28;20534;-63
2023/04/09 09:04:45;;;;;;;0.70;0.70;;;;;;;15.24;43.63;97338.91;4971540;28;20166;-64
2023/04/09 09:07:12;;;;;;;0.70;0.70;;;;;;;14.58;44.05;97322.66;4964408;28;20073;-64
2023/04/09 09:09:59;;;;;;;0.65;0.65;;;;;;;13.93;43.78;97261.28;4965096;28;20085;-62
2023/04/09 09:12:41;;;;;;;0.68;0.68;;;;;;;14.53;44.35;97309.09;4968237;28;20196;-64
2023/04/09 09:15:28;;;;;;;0.70;0.70;;;;;;;13.93;44.42;97321.75;4984094;28;20104;-63
2023/04/09 09:17:57;;;;;;;0.60;0.60;;;;;;;14.15;43.82;97327.13;4987475;28;20046;-63
2023/04/09 09:20:25;;;;;;;0.60;0.60;;;;;;;14.20;41.32;97323.97;4986462;28;20141;-64
2023/04/09 09:22:54;;;;;;;0.65;0.65;;;;;;;14.54;42.16;97288.41;4985467;28;20485;-64
2023/04/09 09:25:23;;;;;;;0.60;0.60;;;;;;;14.73;43.62;97324.34;4985492;28;20057;-64
2023/04/09 09:27:51;;;;;;;0.60;0.60;;;;;;;14.28;44.32;97341.56;4985035;28;20050;-64
2023/04/09 09:30:22;;;;;;;0.60;0.60;;;;;;;14.16;42.86;97222.06;4983445;28;20793;-63
2023/04/09 09:33:03;;;;;;;0.65;0.65;;;;;;;15.50;42.35;97307.91;4984995;28;20046;-62
2023/04/09 09:35:29;;;;;;;0.60;0.60;;;;;;;15.28;42.33;97336.94;4985156;28;20497;-64
2023/04/09 09:38:03;;;;;;;0.60;0.60;;;;;;;13.95;44.31;97227.47;4987136;28;20042;-64
2023/04/09 09:40:29;;;;;;;;;;;;;;;15.31;41.85;97322.19;4987280;28;20505;-63
2023/04/09 09:42:56;;;;;;;0.70;0.70;;;;;;;14.91;42.62;97323.25;4987081;28;19932;-64
2023/04/09 09:45:24;;;;;;;0.70;0.70;;;;;;;5.96;42.54;95942.84;4984442;28;20082;-64
2023/04/09 09:47:53;;;;;;;0.60;0.60;;;;;;;14.96;41.71;97317.28;4984606;28;20293;-64
2023/04/09 09:50:24;;;;;;;0.70;0.70;;;;;;;15.38;41.90;97311.06;4984906;28;20057;-63
2023/04/09 09:53:07;;;;;;;0.63;0.63;;;;;;;15.78;41.34;97313.53;4986355;28;20050;-63
2023/04/09 09:55:38;;;;;;;0.60;0.60;;;;;;;14.93;43.07;97317.25;4986102;28;20050;-63
2023/04/09 09:58:29;;;;;;;0.70;0.70;;;;;;;14.64;42.76;97304.38;4986426;28;20543;-62
2023/04/09 10:00:57;;;;;;;0.60;0.60;;;;;;;15.25;42.73;97301.44;4986378;28;20053;-63
2023/04/09 10:03:26;;;;;;;0.70;0.70;;;;;;;14.85;42.02;97254.28;4984097;28;20061;-62
2023/04/09 10:05:55;;;;;;;0.70;0.70;;;;;;;14.74;43.48;97303.63;4985817;28;20086;-64
2023/04/09 10:08:22;;;;;;;0.60;0.60;;;;;;;15.00;42.61;97289.41;4985937;28;20081;-63
2023/04/09 10:10:51;;;;;;;0.70;0.70;;;;;;;15.66;41.21;97288.00;4986041;28;20493;-64
2023/04/09 10:13:28;;;;;;;0.70;0.70;;;;;;;16.14;41.68;97292.78;4985932;28;20559;-64
2023/04/09 10:15:55;;;;;;;0.70;0.70;;;;;;;16.46;40.55;97287.19;4984532;28;20129;-63
2023/04/09 10:18:22;;;;;;;0.70;0.70;;;;;;;16.30;40.34;97284.78;4985841;28;20063;-62
2023/04/09 10:20:57;;;;;;;0.70;0.70;;;;;;;15.39;41.62;97290.34;4985807;28;20614;-63
2023/04/09 10:23:38;;;;;;;0.70;0.70;;;;;;;15.73;41.57;97277.63;4986284;28;20094;-66
2023/04/09 10:26:05;;;;;;;0.70;0.70;;;;;;;15.52;41.51;97255.28;4985714;28;20097;-64
2023/04/09 10:28:32;;;;;;;0.70;0.70;;;;;;;15.57;41.72;97268.81;4985621;28;20058;-65
2023/04/09 10:30:59;;;;;;;0.70;0.70;;;;;;;16.19;41.86;97267.22;4985628;28;20077;-62
2023/04/09 10:33:27;;;;;;;0.70;0.70;;;;;;;16.49;40.55;97231.25;4986395;28;20070;-67
2023/04/09 10:35:59;;;;;;;0.80;0.80;;;;;;;17.38;39.68;97276.41;5000519;28;20050;-65
2023/04/09 10:38:43;;;;;;;0.70;0.70;;;;;;;17.74;38.60;97261.00;5000751;28;20105;-65
2023/04/09 10:41:10;;;;;;;0.90;0.90;;;;;;;18.23;38.18;97274.59;5000488;28;20057;-63
2023/04/09 10:43:37;;;;;;;0.80;0.80;;;;;;;18.38;38.26;97278.91;4985832;28;20050;-63
2023/04/09 10:46:07;;;;;;;0.80;0.80;;;;;;;18.41;38.12;97272.47;4984985;28;20105;-63
2023/04/09 10:48:34;;;;;;;0.70;0.70;;;;;;;17.95;37.93;97205.56;4985066;28;20563;-64
2023/04/09 10:51:05;;;;;;;0.70;0.70;;;;;;;18.21;38.77;97262.22;4985410;28;20061;-65
2023/04/09 10:53:32;;;;;;;0.80;0.80;;;;;;;18.00;38.26;97235.16;4985494;28;20112;-64
2023/04/09 10:56:00;;;;;;;0.80;0.80;;;;;;;17.86;39.14;97268.94;4999957;28;20046;-63
2023/04/09 10:58:26;;;;;;;0.80;0.80;;;;;;;17.90;38.22;97255.66;4985961;28;20130;-64
2023/04/09 11:00:54;;;;;;;0.80;0.80;;;;;;;17.95;37.79;97255.22;5000342;28;20460;-65
2023/04/09 11:03:26;;;;;;;0.88;0.88;;;;;;;17.85;37.31;97251.31;4985650;28;20108;-64
2023/04/09 11:05:58;;;;;;;0.80;0.80;;;;;;;17.72;38.23;97252.22;5000494;28;20461;-66
2023/04/09 11:08:30;;;;;;;0.80;0.80;;;;;;;17.40;37.91;97220.81;4984932;28;20081;-62
2023/04/09 11:10:59;;;;;;;0.77;0.77;;;;;;;17.16;37.69;97242.16;4985133;28;20054;-63
2023/04/09 11:13:29;;;;;;;0.70;0.70;;;;;;;17.08;38.11;97245.38;4999925;28;20054;-64
2023/04/09 11:15:56;;;;;;;0.80;0.80;;;;;;;17.18;38.26;97245.31;4983720;28;20305;-62
2023/04/09 11:18:25;;;;;;;0.80;0.80;;;;;;;17.12;38.18;97215.38;4983783;28;20046;-63
2023/04/09 11:20:56;;;;;;;0.70;0.70;;;;;;;17.57;37.17;97228.31;4984990;28;20089;-64
2023/04/09 11:23:23;;;;;;;0.70;0.70;;;;;;;17.68;36.54;97229.81;4984658;28;20061;-63
2023/04/09 11:25:51;;;;;;;0.80;0.80;;;;;;;17.67;35.95;97221.84;4984806;28;20046;-65
2023/04/09 11:28:19;;;;;;;0.70;0.70;;;;;;;16.71;37.49;97215.16;4985118;28;20148;-63
2023/04/09 11:30:46;;;;;;;0.73;0.73;;;;;;;16.92;35.62;97231.06;4984733;28;20046;-62
2023/04/09 11:33:13;;;;;;;0.70;0.70;;;;;;;16.06;35.39;97228.94;4984808;28;20501;-65
2023/04/09 11:35:44;;;;;;;0.80;0.80;;;;;;;16.27;36.05;97172.97;4984600;28;20051;-64
2023/04/09 11:38:11;;;;;;;0.70;0.70;;;;;;;17.07;34.63;97221.41;4983378;28;20072;-62
2023/04/09 11:40:48;;;;;;;0.80;0.80;;;;;;;17.47;33.35;97212.38;4984919;28;20046;-64
2023/04/09 11:43:16;;;;;;;0.77;0.77;;;;;;;17.77;33.10;97209.72;4984911;28;20050;-63
2023/04/09 11:45:45;;;;;;;0.80;0.80;;;;;;;17.82;33.06;97214.91;4984287;28;20058;-65